Time;durP1;ratioP1;P1;durP2;ratioP2;P2;SDS_P1;SDS_P2;PMS_P1;PMS_P2;Temp;Humidity;BMP_temperature;BMP_pressure;BME280_temperature;BME280_humidity;BME280_pressure;Samples;Min_cycle;Max_cycle;Signal;HPM_P1;HPM_P2
2023/10/27 00:01:07;;;;;;;;;;;10.40;99.90;;;;;;7293053;19;10239;-79
2023/10/27 00:03:36;;;;;;;;;;;10.40;99.90;;;;;;7298713;19;9423;-80
2023/10/27 00:06:06;;;;;;;;;;;10.40;99.90;;;;;;7321737;19;9452;-80
2023/10/27 00:08:38;;;;;;;;;;;10.40;99.90;;;;;;7319953;19;9477;-79
2023/10/27 00:11:08;;;;;;;;;;;10.40;99.90;;;;;;7319495;19;9451;-79
2023/10/27 00:13:37;;;;;;;;;;;10.40;99.90;;;;;;7321541;19;9547;-79
2023/10/27 00:16:11;;;;;;;;;;;10.40;99.90;;;;;;7322216;19;9254;-79
2023/10/27 00:18:40;;;;;;;;;;;10.40;99.90;;;;;;7320333;19;9362;-79
2023/10/27 00:21:09;;;;;;;;;;;10.40;99.90;;;;;;7322247;19;9218;-80
2023/10/27 00:23:41;;;;;;;;;;;10.40;99.90;;;;;;7318509;19;9265;-79
2023/10/27 00:26:10;;;;;;;;;;;10.40;99.90;;;;;;7322021;19;9237;-79
2023/10/27 00:28:39;;;;;;;;;;;10.40;99.90;;;;;;7317703;19;9268;-79
2023/10/27 00:31:08;;;;;;;;;;;10.30;99.90;;;;;;7321011;19;9473;-79
2023/10/27 00:33:37;;;;;;;;;;;10.30;99.90;;;;;;7318204;19;9245;-79
2023/10/27 00:36:07;;;;;;;;;;;10.30;99.90;;;;;;7321125;19;9526;-79
2023/10/27 00:38:36;;;;;;;;;;;10.30;99.90;;;;;;7320255;19;9230;-79
2023/10/27 00:41:08;;;;;;;;;;;10.30;99.90;;;;;;7320581;19;9313;-79
2023/10/27 00:43:37;;;;;;;;;;;10.30;99.90;;;;;;7318957;19;9206;-79
2023/10/27 00:46:06;;;;;;;;;;;10.30;99.90;;;;;;7320896;19;9288;-79
2023/10/27 00:48:36;;;;;;;;;;;10.30;99.90;;;;;;7321533;19;9244;-79
2023/10/27 00:51:06;;;;;;;;;;;10.30;99.90;;;;;;7319908;19;9181;-79
2023/10/27 00:53:37;;;;;;;;;;;10.30;99.90;;;;;;7320133;19;9508;-79
2023/10/27 00:56:09;;;;;;;;;;;10.30;99.90;;;;;;7320356;19;9218;-79
2023/10/27 00:58:38;;;;;;;;;;;10.30;99.90;;;;;;7320719;19;9815;-79
2023/10/27 01:01:09;;;;;;;;;;;10.20;99.90;;;;;;7317172;19;9717;-79
2023/10/27 01:03:38;;;;;;;;;;;10.30;99.90;;;;;;7319860;19;9206;-79
2023/10/27 01:06:07;;;;;;;;;;;10.30;99.90;;;;;;7318369;19;9281;-79
2023/10/27 01:08:36;;;;;;;;;;;10.30;99.90;;;;;;7320274;19;9137;-79
2023/10/27 01:11:08;;;;;;;;;;;10.20;99.90;;;;;;7321130;19;9451;-79
2023/10/27 01:13:37;;;;;;;;;;;10.30;99.90;;;;;;7315082;19;10617;-79
2023/10/27 01:16:07;;;;;;;;;;;10.30;99.90;;;;;;7318448;19;9866;-79
2023/10/27 01:18:36;;;;;;;;;;;10.20;99.90;;;;;;7319292;19;9364;-80
2023/10/27 01:21:05;;;;;;;;;;;10.20;99.90;;;;;;7320193;19;9683;-79
2023/10/27 01:23:37;;;;;;;;;;;10.20;99.90;;;;;;7320109;19;9285;-79
2023/10/27 01:26:06;;;;;;;;;;;10.30;99.90;;;;;;7320528;19;10385;-79
2023/10/27 01:28:35;;;;;;;;;;;10.30;99.90;;;;;;7319432;19;9470;-79
2023/10/27 01:31:04;;;;;;;;;;;10.40;99.90;;;;;;7315734;19;9420;-79
2023/10/27 01:33:34;;;;;;;;;;;10.40;99.90;;;;;;7318960;19;9241;-79
2023/10/27 01:36:03;;;;;;;;;;;10.40;99.90;;;;;;7315109;19;9272;-79
2023/10/27 01:38:32;;;;;;;;;;;10.30;99.90;;;;;;7319281;19;9479;-80
2023/10/27 01:41:03;;;;;;;;;;;10.20;99.90;;;;;;7316376;19;9259;-79
2023/10/27 01:43:32;;;;;;;;;;;10.20;99.90;;;;;;7318588;19;9374;-79
2023/10/27 01:46:01;;;;;;;;;;;10.20;99.90;;;;;;7318686;19;9301;-79
2023/10/27 01:48:31;;;;;;;;;;;10.20;99.90;;;;;;7320248;19;9236;-79
2023/10/27 01:51:00;;;;;;;;;;;10.30;99.90;;;;;;7316092;19;9167;-79
2023/10/27 01:53:31;;;;;;;;;;;10.30;99.90;;;;;;7317699;19;9390;-79
2023/10/27 01:56:02;;;;;;;;;;;10.30;99.90;;;;;;7318694;19;9401;-79
2023/10/27 01:58:31;;;;;;;;;;;10.20;99.90;;;;;;7318471;19;9470;-79
2023/10/27 02:01:00;;;;;;;;;;;10.20;99.90;;;;;;7318192;19;9254;-79
2023/10/27 02:03:29;;;;;;;;;;;10.30;99.90;;;;;;7318294;19;9225;-80
2023/10/27 02:05:58;;;;;;;;;;;10.20;99.90;;;;;;7314510;19;9577;-79
2023/10/27 02:08:26;;;;;;;;;;;10.20;99.90;;;;;;7317805;19;9284;-79
2023/10/27 02:10:55;;;;;;;;;;;10.20;99.90;;;;;;7317644;19;11548;-79
2023/10/27 02:13:27;;;;;;;;;;;10.20;99.90;;;;;;7317704;19;9223;-79
2023/10/27 02:15:56;;;;;;;;;;;10.20;99.90;;;;;;7319322;19;9316;-79
2023/10/27 02:18:25;;;;;;;;;;;10.20;99.90;;;;;;7317686;19;9245;-79
2023/10/27 02:20:54;;;;;;;;;;;10.10;99.90;;;;;;7316103;19;9206;-79
2023/10/27 02:23:22;;;;;;;;;;;10.10;99.90;;;;;;7318292;19;9599;-79
2023/10/27 02:25:51;;;;;;;;;;;10.10;99.90;;;;;;7317860;19;9276;-79
2023/10/27 02:28:21;;;;;;;;;;;10.10;99.90;;;;;;7318984;19;9282;-79
2023/10/27 02:30:53;;;;;;;;;;;10.10;99.90;;;;;;7315451;19;9467;-79
2023/10/27 02:33:22;;;;;;;;;;;10.10;99.90;;;;;;7315084;19;9321;-80
2023/10/27 02:35:50;;;;;;;;;;;10.20;99.90;;;;;;7317674;19;10464;-79
2023/10/27 02:38:19;;;;;;;;;;;10.20;99.90;;;;;;7315968;19;9336;-79
2023/10/27 02:40:48;;;;;;;;;;;10.10;99.90;;;;;;7316639;19;9246;-79
2023/10/27 02:43:17;;;;;;;;;;;10.10;99.90;;;;;;7317532;19;9416;-79
2023/10/27 02:45:46;;;;;;;;;;;10.10;99.90;;;;;;7312846;19;9195;-79
2023/10/27 02:48:17;;;;;;;;;;;10.10;99.90;;;;;;7316247;19;9615;-79
2023/10/27 02:50:46;;;;;;;;;;;10.10;99.90;;;;;;7316468;19;9231;-79
2023/10/27 02:53:15;;;;;;;;;;;10.10;99.90;;;;;;7322705;19;9225;-79
2023/10/27 02:55:44;;;;;;;;;;;10.10;99.90;;;;;;7324111;19;9352;-79
2023/10/27 02:58:13;;;;;;;;;;;10.20;99.90;;;;;;7325279;19;9986;-79
2023/10/27 03:00:43;;;;;;;;;;;10.10;99.90;;;;;;7322156;19;9327;-79
2023/10/27 03:03:12;;;;;;;;;;;10.10;99.90;;;;;;7322705;19;9257;-79
2023/10/27 03:05:44;;;;;;;;;;;10.10;99.90;;;;;;7323741;19;9105;-79
2023/10/27 03:08:12;;;;;;;;;;;10.10;99.90;;;;;;7320606;19;9262;-79
2023/10/27 03:10:41;;;;;;;;;;;10.00;99.90;;;;;;7322016;19;9208;-79
2023/10/27 03:13:10;;;;;;;;;;;10.10;99.90;;;;;;7323008;19;9563;-79
2023/10/27 03:15:39;;;;;;;;;;;10.00;99.90;;;;;;7322006;19;9462;-79
2023/10/27 03:18:08;;;;;;;;;;;10.10;99.90;;;;;;7323072;19;9581;-80
2023/10/27 03:20:37;;;;;;;;;;;10.10;99.90;;;;;;7319340;19;9458;-79
2023/10/27 03:23:09;;;;;;;;;;;10.20;99.90;;;;;;7322559;19;9476;-79
2023/10/27 03:25:37;;;;;;;;;;;10.10;99.90;;;;;;7322295;19;11135;-79
2023/10/27 03:28:06;;;;;;;;;;;10.20;99.90;;;;;;7322250;19;9174;-79
2023/10/27 03:30:36;;;;;;;;;;;10.20;99.90;;;;;;7318934;19;9273;-80
2023/10/27 03:33:05;;;;;;;;;;;10.10;99.90;;;;;;7321047;19;9135;-79
2023/10/27 03:35:34;;;;;;;;;;;10.10;99.90;;;;;;7321585;19;9157;-79
2023/10/27 03:38:03;;;;;;;;;;;10.10;99.90;;;;;;7322936;19;9241;-79
2023/10/27 03:40:34;;;;;;;;;;;10.10;99.90;;;;;;7319981;19;9355;-79
2023/10/27 03:43:03;;;;;;;;;;;10.00;99.90;;;;;;7321514;19;9190;-79
2023/10/27 03:45:32;;;;;;;;;;;10.10;99.90;;;;;;7319389;19;9133;-79
2023/10/27 03:48:01;;;;;;;;;;;10.10;99.90;;;;;;7321364;19;9621;-79
2023/10/27 03:50:30;;;;;;;;;;;10.10;99.90;;;;;;7321455;19;9788;-79
2023/10/27 03:52:59;;;;;;;;;;;10.00;99.90;;;;;;7320376;19;9318;-79
2023/10/27 03:55:28;;;;;;;;;;;10.10;99.90;;;;;;7322387;19;9352;-80
2023/10/27 03:58:15;;;;;;;;;;;10.10;99.90;;;;;;7323351;19;9312;-79
2023/10/27 04:00:44;;;;;;;;;;;10.10;99.90;;;;;;7319833;19;9312;-79
2023/10/27 04:03:14;;;;;;;;;;;10.10;99.90;;;;;;7316795;19;10368;-80
2023/10/27 04:05:43;;;;;;;;;;;10.00;99.90;;;;;;7320905;19;9493;-79
2023/10/27 04:08:12;;;;;;;;;;;10.10;99.90;;;;;;7320924;19;9458;-79
2023/10/27 04:10:41;;;;;;;;;;;10.20;99.90;;;;;;7321332;19;9478;-79
2023/10/27 04:13:14;;;;;;;;;;;10.10;99.90;;;;;;7318424;19;9214;-79
2023/10/27 04:15:44;;;;;;;;;;;10.10;99.90;;;;;;7321220;19;9222;-80
2023/10/27 04:18:13;;;;;;;;;;;10.10;99.90;;;;;;7320598;19;10435;-79
2023/10/27 04:20:42;;;;;;;;;;;10.20;99.90;;;;;;7320772;19;9361;-79
2023/10/27 04:23:12;;;;;;;;;;;10.20;99.90;;;;;;7322069;19;9475;-79
2023/10/27 04:25:41;;;;;;;;;;;10.20;99.90;;;;;;7317667;19;9285;-80
2023/10/27 04:28:13;;;;;;;;;;;10.20;99.90;;;;;;7315717;19;11552;-79
2023/10/27 04:30:42;;;;;;;;;;;10.20;99.90;;;;;;7303162;19;9309;-79
2023/10/27 04:33:12;;;;;;;;;;;10.30;99.90;;;;;;7312353;19;9333;-79
2023/10/27 04:35:41;;;;;;;;;;;10.30;99.90;;;;;;7318364;19;9286;-79
2023/10/27 04:38:10;;;;;;;;;;;10.20;99.90;;;;;;7320337;19;9482;-80
2023/10/27 04:40:38;;;;;;;;;;;10.20;99.90;;;;;;7320051;19;9458;-79
2023/10/27 04:43:07;;;;;;;;;;;10.20;99.90;;;;;;7319085;19;9728;-79
2023/10/27 04:45:39;;;;;;;;;;;10.20;99.90;;;;;;7318733;19;9268;-79
2023/10/27 04:48:08;;;;;;;;;;;10.10;99.90;;;;;;7315210;19;9297;-79
2023/10/27 04:50:37;;;;;;;;;;;10.10;99.90;;;;;;7319430;19;9376;-79
2023/10/27 04:53:06;;;;;;;;;;;10.10;99.90;;;;;;7320152;19;9408;-79
2023/10/27 04:55:35;;;;;;;;;;;10.10;99.90;;;;;;7317149;19;9250;-79
2023/10/27 04:58:05;;;;;;;;;;;10.10;99.90;;;;;;7316843;19;9510;-80
2023/10/27 05:00:34;;;;;;;;;;;10.20;99.90;;;;;;7318504;19;9452;-80
2023/10/27 05:03:06;;;;;;;;;;;10.10;99.90;;;;;;7312497;19;9321;-79
2023/10/27 05:05:35;;;;;;;;;;;10.10;99.90;;;;;;7317975;19;9656;-79
2023/10/27 05:08:03;;;;;;;;;;;10.10;99.90;;;;;;7319375;19;9432;-80
2023/10/27 05:10:32;;;;;;;;;;;10.00;99.90;;;;;;7315741;19;10317;-79
2023/10/27 05:13:03;;;;;;;;;;;10.10;99.90;;;;;;7313063;19;9285;-79
2023/10/27 05:15:32;;;;;;;;;;;10.10;99.90;;;;;;7316663;19;9170;-80
2023/10/27 05:18:04;;;;;;;;;;;10.10;99.90;;;;;;7315523;19;9396;-79
2023/10/27 05:20:38;;;;;;;;;;;10.10;99.90;;;;;;7317501;19;10314;-79
2023/10/27 05:23:07;;;;;;;;;;;10.00;99.90;;;;;;7313143;19;9133;-79
2023/10/27 05:25:37;;;;;;;;;;;10.10;99.90;;;;;;7318059;19;9245;-80
2023/10/27 05:28:07;;;;;;;;;;;10.10;99.90;;;;;;7317398;19;9399;-79
2023/10/27 05:30:37;;;;;;;;;;;10.10;99.90;;;;;;7320448;19;9429;-79
2023/10/27 05:33:06;;;;;;;;;;;10.00;99.90;;;;;;7316496;19;9354;-79
2023/10/27 05:35:38;;;;;;;;;;;10.00;99.90;;;;;;7318707;19;9257;-79
2023/10/27 05:38:07;;;;;;;;;;;10.00;99.90;;;;;;7315982;19;9298;-79
2023/10/27 05:40:36;;;;;;;;;;;10.00;99.90;;;;;;7317247;19;9234;-79
2023/10/27 05:43:04;;;;;;;;;;;10.00;99.90;;;;;;7310896;19;9482;-79
2023/10/27 05:45:36;;;;;;;;;;;10.00;99.90;;;;;;7319137;19;9594;-79
2023/10/27 05:48:06;;;;;;;;;;;10.10;99.90;;;;;;7318362;19;9332;-79
2023/10/27 05:50:37;;;;;;;;;;;10.10;99.90;;;;;;7316887;19;9297;-79
2023/10/27 05:53:06;;;;;;;;;;;10.10;99.90;;;;;;7317106;19;10323;-79
2023/10/27 05:55:35;;;;;;;;;;;10.10;99.90;;;;;;7315267;19;9230;-79
2023/10/27 05:58:05;;;;;;;;;;;10.10;99.90;;;;;;7314916;19;9622;-79
2023/10/27 06:00:34;;;;;;;;;;;10.10;99.90;;;;;;7318204;19;9189;-79
2023/10/27 06:03:03;;;;;;;;;;;10.00;99.90;;;;;;7313574;19;9270;-80
2023/10/27 06:05:32;;;;;;;;;;;10.00;99.90;;;;;;7315732;19;9535;-80
2023/10/27 06:08:04;;;;;;;;;;;10.00;99.90;;;;;;7317658;19;13674;-80
2023/10/27 06:10:32;;;;;;;;;;;9.90;99.90;;;;;;7318283;19;9689;-80
2023/10/27 06:13:02;;;;;;;;;;;10.00;99.90;;;;;;7313263;19;14376;-80
2023/10/27 06:15:31;;;;;;;;;;;10.00;99.90;;;;;;7318118;19;9118;-81
2023/10/27 06:18:00;;;;;;;;;;;10.00;99.90;;;;;;7315169;19;9182;-83
2023/10/27 06:20:29;;;;;;;;;;;10.00;99.90;;;;;;7318515;19;9169;-85
2023/10/27 06:22:58;;;;;;;;;;;10.10;99.90;;;;;;7316488;19;9226;-83
2023/10/27 06:25:30;;;;;;;;;;;10.10;99.90;;;;;;7317985;19;9662;-80
2023/10/27 06:27:59;;;;;;;;;;;10.00;99.90;;;;;;7318649;19;9223;-80
2023/10/27 06:30:28;;;;;;;;;;;10.00;99.90;;;;;;7308141;19;9150;-80
2023/10/27 06:32:57;;;;;;;;;;;10.00;99.90;;;;;;7292086;19;9707;-81
2023/10/27 06:35:26;;;;;;;;;;;10.00;99.90;;;;;;7309752;19;9265;-80
2023/10/27 06:37:55;;;;;;;;;;;9.90;99.90;;;;;;7322609;19;9205;-80
2023/10/27 06:40:25;;;;;;;;;;;10.00;99.90;;;;;;7321682;19;9503;-80
2023/10/27 06:42:56;;;;;;;;;;;10.00;99.90;;;;;;7322244;19;9312;-80
2023/10/27 06:45:25;;;;;;;;;;;10.00;99.90;;;;;;7324786;19;9467;-80
2023/10/27 06:47:54;;;;;;;;;;;10.00;99.90;;;;;;7324253;19;9313;-80
2023/10/27 06:50:23;;;;;;;;;;;10.10;99.90;;;;;;7325645;19;9427;-81
2023/10/27 06:52:51;;;;;;;;;;;10.00;99.90;;;;;;7324621;19;10648;-81
2023/10/27 06:55:21;;;;;;;;;;;10.10;99.90;;;;;;7325258;19;9218;-81
2023/10/27 06:57:50;;;;;;;;;;;10.00;99.90;;;;;;7319776;19;9237;-81
2023/10/27 07:00:21;;;;;;;;;;;10.00;99.90;;;;;;7324828;19;9219;-80
2023/10/27 07:02:51;;;;;;;;;;;10.20;99.90;;;;;;7323014;19;9229;-80
2023/10/27 07:05:21;;;;;;;;;;;10.20;99.90;;;;;;7322938;19;9330;-80
2023/10/27 07:07:50;;;;;;;;;;;10.10;99.90;;;;;;7323863;19;9473;-80
2023/10/27 07:10:19;;;;;;;;;;;10.10;99.90;;;;;;7323333;19;9348;-80
2023/10/27 07:12:48;;;;;;;;;;;10.10;99.90;;;;;;7323114;19;9458;-81
2023/10/27 07:15:17;;;;;;;;;;;10.10;99.90;;;;;;7323856;19;9466;-80
2023/10/27 07:17:48;;;;;;;;;;;10.20;99.90;;;;;;7323378;19;9416;-80
2023/10/27 07:20:18;;;;;;;;;;;10.20;99.90;;;;;;7324125;19;9214;-80
2023/10/27 07:22:47;;;;;;;;;;;10.10;99.90;;;;;;7323259;19;9362;-80
2023/10/27 07:25:16;;;;;;;;;;;10.10;99.90;;;;;;7323346;19;9434;-80
2023/10/27 07:27:45;;;;;;;;;;;10.20;99.90;;;;;;7321684;19;9012;-80
2023/10/27 07:30:16;;;;;;;;;;;10.20;99.90;;;;;;7322024;19;9139;-80
2023/10/27 07:32:45;;;;;;;;;;;10.20;99.90;;;;;;7322140;19;9524;-80
2023/10/27 07:35:16;;;;;;;;;;;10.30;99.90;;;;;;7322297;19;9422;-80
2023/10/27 07:37:46;;;;;;;;;;;10.30;99.90;;;;;;7319167;19;9547;-80
2023/10/27 07:40:15;;;;;;;;;;;10.30;99.90;;;;;;7321268;19;9319;-80
2023/10/27 07:42:44;;;;;;;;;;;10.40;99.90;;;;;;7322800;19;9320;-80
2023/10/27 07:45:13;;;;;;;;;;;10.30;99.90;;;;;;7323200;19;10624;-80
2023/10/27 07:47:43;;;;;;;;;;;10.30;99.90;;;;;;7323297;19;9120;-80
2023/10/27 07:50:16;;;;;;;;;;;10.30;99.90;;;;;;7323679;19;9360;-80
2023/10/27 07:52:44;;;;;;;;;;;10.30;99.90;;;;;;7321761;19;9299;-80
2023/10/27 07:55:14;;;;;;;;;;;10.30;99.90;;;;;;7322344;19;9190;-80
2023/10/27 07:57:43;;;;;;;;;;;10.30;99.90;;;;;;7322155;19;9214;-80
2023/10/27 08:00:14;;;;;;;;;;;10.30;99.90;;;;;;7317217;19;9210;-82
2023/10/27 08:02:43;;;;;;;;;;;10.30;99.90;;;;;;7320980;19;9480;-80
2023/10/27 08:05:12;;;;;;;;;;;10.30;99.90;;;;;;7317656;19;9155;-84
2023/10/27 08:07:44;;;;;;;;;;;10.30;99.90;;;;;;7307893;19;9122;-87
2023/10/27 08:10:14;;;;;;;;;;;10.40;99.90;;;;;;7318729;19;9122;-86
2023/10/27 08:12:43;;;;;;;;;;;10.40;99.90;;;;;;7320583;19;10604;-82
2023/10/27 08:15:12;;;;;;;;;;;10.40;99.90;;;;;;7305225;19;12873;-85
2023/10/27 08:17:41;;;;;;;;;;;10.50;99.90;;;;;;7308558;19;9212;-86
2023/10/27 08:20:11;;;;;;;;;;;10.40;99.90;;;;;;7304092;19;9273;-81
2023/10/27 08:22:43;;;;;;;;;;;10.30;99.90;;;;;;7304953;19;9434;-82
2023/10/27 08:25:12;;;;;;;;;;;10.40;99.90;;;;;;7301851;19;9531;-83
2023/10/27 08:27:41;;;;;;;;;;;10.30;99.90;;;;;;7300770;19;10105;-84
2023/10/27 08:30:12;;;;;;;;;;;10.30;99.90;;;;;;7309243;19;9175;-83
2023/10/27 08:32:41;;;;;;;;;;;10.40;99.90;;;;;;7310991;19;9557;-83
2023/10/27 08:35:10;;;;;;;;;;;10.40;99.90;;;;;;7304544;19;9170;-79
2023/10/27 08:37:39;;;;;;;;;;;10.40;99.90;;;;;;7319825;19;9342;-86
2023/10/27 08:40:15;;;;;;;;;;;10.40;99.90;;;;;;7320171;19;9495;-84
2023/10/27 08:42:46;;;;;;;;;;;10.40;99.90;;;;;;7319132;19;9242;-83
2023/10/27 08:45:15;;;;;;;;;;;10.60;99.90;;;;;;7318306;19;9262;-84
2023/10/27 08:47:44;;;;;;;;;;;10.60;99.90;;;;;;7314239;19;9127;-83
2023/10/27 08:50:13;;;;;;;;;;;10.70;99.90;;;;;;7314818;19;9298;-84
2023/10/27 08:52:42;;;;;;;;;;;10.70;99.90;;;;;;7313971;19;10636;-84
2023/10/27 08:55:15;;;;;;;;;;;10.80;99.90;;;;;;7317771;19;9555;-83
2023/10/27 08:57:44;;;;;;;;;;;10.90;99.90;;;;;;7305620;19;9506;-90
2023/10/27 09:00:16;;;;;;;;;;;10.80;99.90;;;;;;7307898;19;9222;-83
2023/10/27 09:02:45;;;;;;;;;;;10.80;99.90;;;;;;7311973;19;9411;-85
2023/10/27 09:05:14;;;;;;;;;;;10.70;99.90;;;;;;7311766;19;9316;-83
2023/10/27 09:07:42;;;;;;;;;;;10.80;99.90;;;;;;7314027;19;9334;-84
2023/10/27 09:10:17;;;;;;;;;;;10.90;99.90;;;;;;7300971;19;12044;-87
2023/10/27 09:12:47;;;;;;;;;;;10.90;99.90;;;;;;7289030;19;9435;-81
2023/10/27 09:15:16;;;;;;;;;;;10.90;99.90;;;;;;7295063;19;9831;-82
2023/10/27 09:17:57;;;;;;;;;;;10.80;99.90;;;;;;7299066;19;9653;-84
2023/10/27 09:20:28;;;;;;;;;;;10.90;99.90;;;;;;7313961;19;9253;-88
2023/10/27 09:23:04;;;;;;;;;;;10.90;99.90;;;;;;7317605;19;11490;-83
2023/10/27 09:25:37;;;;;;;;;;;11.00;99.90;;;;;;7317449;19;9320;-83
2023/10/27 09:28:11;;;;;;;;;;;11.00;99.90;;;;;;7318850;19;9443;-84
2023/10/27 09:30:42;;;;;;;;;;;11.00;99.90;;;;;;7316002;19;9627;-81
2023/10/27 09:33:20;;;;;;;;;;;11.10;99.90;;;;;;7317863;19;9623;-82
2023/10/27 09:35:51;;;;;;;;;;;11.20;99.90;;;;;;7313563;19;9930;-84
2023/10/27 09:38:22;;;;;;;;;;;11.20;99.90;;;;;;7296786;19;10809;-84
2023/10/27 09:40:56;;;;;;;;;;;11.20;99.90;;;;;;7309432;19;11092;-84
2023/10/27 09:43:26;;;;;;;;;;;11.20;99.90;;;;;;7295774;19;10406;-84
2023/10/27 09:45:56;;;;;;;;;;;11.20;99.90;;;;;;7296930;19;9708;-86
2023/10/27 09:48:28;;;;;;;;;;;11.20;99.90;;;;;;7318563;19;9270;-84
2023/10/27 09:51:04;;;;;;;;;;;11.20;99.90;;;;;;7291199;19;9171;-87
2023/10/27 09:53:34;;;;;;;;;;;11.20;99.90;;;;;;7293932;19;9281;-86
2023/10/27 09:56:06;;;;;;;;;;;11.30;99.90;;;;;;7292642;19;9436;-86
2023/10/27 09:58:35;;;;;;;;;;;11.30;99.90;;;;;;7299454;19;10381;-84
2023/10/27 10:01:05;;;;;;;;;;;11.30;99.90;;;;;;7313618;19;9359;-83
2023/10/27 10:03:35;;;;;;;;;;;11.30;99.90;;;;;;7313580;19;9294;-84
2023/10/27 10:06:15;;;;;;;;;;;11.30;99.90;;;;;;7316930;19;9471;-85
2023/10/27 10:09:11;;;;;;;;;;;11.20;99.90;;;;;;7317774;19;9290;-83
2023/10/27 10:11:59;;;;;;;;;;;11.40;99.90;;;;;;7318995;19;9454;-83
2023/10/27 10:14:52;;;;;;;;;;;11.30;99.90;;;;;;7316451;19;9218;-83
2023/10/27 10:17:43;;;;;;;;;;;11.30;99.90;;;;;;7314546;19;9746;-82
2023/10/27 10:20:12;;;;;;;;;;;11.30;99.90;;;;;;7303972;19;9118;-83
2023/10/27 10:22:57;;;;;;;;;;;11.40;99.90;;;;;;7303730;19;9261;-80
2023/10/27 10:25:30;;;;;;;;;;;11.50;99.90;;;;;;7300046;19;9641;-81
2023/10/27 10:28:36;;;;;;;;;;;11.50;99.90;;;;;;7307469;19;10199;-81
2023/10/27 10:31:29;;;;;;;;;;;11.50;99.90;;;;;;7294741;19;9478;-80
2023/10/27 10:34:13;;;;;;;;;;;11.50;99.90;;;;;;7307317;19;9914;-83
2023/10/27 10:36:43;;;;;;;;;;;11.50;99.90;;;;;;7311021;19;9547;-86
2023/10/27 10:39:15;;;;;;;;;;;11.50;99.90;;;;;;7292266;19;9325;-90
2023/10/27 10:42:03;;;;;;;;;;;11.60;99.90;;;;;;7314340;19;9318;-87
2023/10/27 10:44:35;;;;;;;;;;;11.50;99.90;;;;;;7297881;19;9439;-85
2023/10/27 10:47:06;;;;;;;;;;;11.60;99.90;;;;;;7315023;19;9650;-84
2023/10/27 10:49:36;;;;;;;;;;;11.60;99.90;;;;;;7317263;19;9269;-87
2023/10/27 10:52:05;;;;;;;;;;;11.50;99.90;;;;;;7311918;19;9291;-82
2023/10/27 10:54:36;;;;;;;;;;;11.50;99.90;;;;;;7304237;19;9535;-80
2023/10/27 10:57:08;;;;;;;;;;;11.60;99.90;;;;;;7313595;19;9107;-82
2023/10/27 10:59:40;;;;;;;;;;;11.70;99.90;;;;;;7314941;19;9471;-81
2023/10/27 11:02:10;;;;;;;;;;;11.70;99.90;;;;;;7310575;19;9554;-82
2023/10/27 11:04:39;;;;;;;;;;;11.60;99.90;;;;;;7305368;19;10383;-81
2023/10/27 11:07:08;;;;;;;;;;;11.50;99.90;;;;;;7313344;19;9222;-81
2023/10/27 11:09:37;;;;;;;;;;;11.50;99.90;;;;;;7309782;19;9238;-81
2023/10/27 11:12:07;;;;;;;;;;;11.50;99.90;;;;;;7302490;19;9656;-81
2023/10/27 11:14:44;;;;;;;;;;;11.60;99.90;;;;;;7310843;19;9368;-81
2023/10/27 11:17:14;;;;;;;;;;;11.50;99.90;;;;;;7311432;19;9239;-81
2023/10/27 11:19:57;;;;;;;;;;;11.50;99.90;;;;;;7322056;19;9432;-81
2023/10/27 11:22:27;;;;;;;;;;;11.40;99.90;;;;;;7317900;19;10361;-81
2023/10/27 11:24:56;;;;;;;;;;;11.50;99.90;;;;;;7313173;19;9220;-81
2023/10/27 11:27:29;;;;;;;;;;;11.40;99.90;;;;;;7313648;19;9448;-81
2023/10/27 11:30:04;;;;;;;;;;;11.40;99.90;;;;;;7313846;19;9571;-81
2023/10/27 11:32:33;;;;;;;;;;;11.40;99.90;;;;;;7313860;19;9486;-81
2023/10/27 11:35:02;;;;;;;;;;;11.40;99.90;;;;;;7305768;19;9390;-86
2023/10/27 11:37:32;;;;;;;;;;;11.40;99.90;;;;;;7305387;19;9278;-87
2023/10/27 11:40:15;;;;;;;;;;;11.40;99.90;;;;;;7305117;19;9386;-82
2023/10/27 11:42:44;;;;;;;;;;;11.60;99.90;;;;;;7322414;19;9725;-81
2023/10/27 11:45:16;;;;;;;;;;;11.50;99.90;;;;;;7314455;19;9707;-80
2023/10/27 11:47:45;;;;;;;;;;;11.50;99.90;;;;;;7317218;19;9668;-80
2023/10/27 11:50:14;;;;;;;;;;;11.50;99.90;;;;;;7301552;19;9464;-87
2023/10/27 11:52:42;;;;;;;;;;;11.50;99.90;;;;;;7297369;19;9373;-86
2023/10/27 11:55:11;;;;;;;;;;;11.50;99.90;;;;;;7302048;19;10478;-83
2023/10/27 11:57:40;;;;;;;;;;;11.50;99.90;;;;;;7307371;19;9358;-82
2023/10/27 12:00:11;;;;;;;;;;;11.50;99.90;;;;;;7306548;19;9196;-84
2023/10/27 12:02:42;;;;;;;;;;;11.50;99.90;;;;;;7314488;19;9322;-79
2023/10/27 12:05:11;;;;;;;;;;;11.60;99.90;;;;;;7302166;19;9137;-86
2023/10/27 12:07:40;;;;;;;;;;;11.60;99.90;;;;;;7317851;19;10358;-84
2023/10/27 12:10:11;;;;;;;;;;;11.50;99.90;;;;;;7319048;19;9277;-82
2023/10/27 12:12:40;;;;;;;;;;;11.60;99.90;;;;;;7318324;19;9587;-82
2023/10/27 12:15:14;;;;;;;;;;;11.50;99.90;;;;;;7318433;19;9267;-82
2023/10/27 12:17:46;;;;;;;;;;;11.50;99.90;;;;;;7304662;19;9482;-82
2023/10/27 12:20:17;;;;;;;;;;;11.50;99.90;;;;;;7317499;19;9296;-82
2023/10/27 12:22:47;;;;;;;;;;;11.40;99.90;;;;;;7318042;19;9466;-82
2023/10/27 12:25:16;;;;;;;;;;;11.40;99.90;;;;;;7302840;19;9332;-82
2023/10/27 12:27:45;;;;;;;;;;;11.40;99.90;;;;;;7314208;19;9776;-82
2023/10/27 12:30:15;;;;;;;;;;;11.50;99.90;;;;;;7313749;19;9356;-82
2023/10/27 12:32:47;;;;;;;;;;;11.40;99.90;;;;;;7311662;19;10133;-83
2023/10/27 12:35:16;;;;;;;;;;;11.40;99.90;;;;;;7312015;19;9253;-80
2023/10/27 12:37:45;;;;;;;;;;;11.40;99.90;;;;;;7316534;19;9499;-83
2023/10/27 12:40:15;;;;;;;;;;;11.30;99.90;;;;;;7307850;19;9269;-81
2023/10/27 12:42:45;;;;;;;;;;;11.40;99.90;;;;;;7310388;19;9695;-82
2023/10/27 12:45:15;;;;;;;;;;;11.40;99.90;;;;;;7308392;19;9119;-86
2023/10/27 12:47:49;;;;;;;;;;;11.50;99.90;;;;;;7311281;19;9294;-88
2023/10/27 12:50:18;;;;;;;;;;;11.40;99.90;;;;;;7316945;19;9440;-84
2023/10/27 12:52:47;;;;;;;;;;;11.50;99.90;;;;;;7307552;19;11290;-81
2023/10/27 12:55:16;;;;;;;;;;;11.50;99.90;;;;;;7312380;19;9497;-85
2023/10/27 12:57:45;;;;;;;;;;;11.50;99.90;;;;;;7315755;19;9730;-83
2023/10/27 13:00:20;;;;;;;;;;;11.40;99.90;;;;;;7320935;19;9494;-84
2023/10/27 13:02:53;;;;;;;;;;;11.30;99.90;;;;;;7317164;19;9688;-83
2023/10/27 13:05:23;;;;;;;;;;;11.30;99.90;;;;;;7320631;19;9452;-83
2023/10/27 13:07:52;;;;;;;;;;;11.30;99.90;;;;;;7318945;19;9383;-84
2023/10/27 13:10:22;;;;;;;;;;;11.20;99.90;;;;;;7320281;19;10462;-84
2023/10/27 13:12:55;;;;;;;;;;;11.30;99.90;;;;;;7320544;19;9531;-84
2023/10/27 13:15:24;;;;;;;;;;;11.20;99.90;;;;;;7316678;19;10178;-84
2023/10/27 13:17:55;;;;;;;;;;;11.20;99.90;;;;;;7321390;19;9158;-84
2023/10/27 13:20:25;;;;;;;;;;;11.20;99.90;;;;;;7319433;19;10006;-84
2023/10/27 13:22:55;;;;;;;;;;;11.30;99.90;;;;;;7321214;19;9226;-84
2023/10/27 13:25:24;;;;;;;;;;;11.20;99.90;;;;;;7319664;19;9443;-84
2023/10/27 13:28:03;;;;;;;;;;;11.10;99.90;;;;;;7321003;19;10278;-84
2023/10/27 13:30:36;;;;;;;;;;;11.10;99.90;;;;;;7318770;19;9531;-84
2023/10/27 13:33:08;;;;;;;;;;;11.20;99.90;;;;;;7319412;19;9237;-84
2023/10/27 13:35:37;;;;;;;;;;;11.10;99.90;;;;;;7319561;19;9487;-84
2023/10/27 13:38:06;;;;;;;;;;;11.10;99.90;;;;;;7317050;19;9532;-84
2023/10/27 13:40:39;;;;;;;;;;;11.00;99.90;;;;;;7320870;19;9206;-84
2023/10/27 13:43:09;;;;;;;;;;;11.20;99.90;;;;;;7316334;19;9230;-84
2023/10/27 13:45:38;;;;;;;;;;;11.10;99.90;;;;;;7319089;19;9320;-85
2023/10/27 13:48:09;;;;;;;;;;;11.10;99.90;;;;;;7304574;19;10343;-86
2023/10/27 13:50:38;;;;;;;;;;;11.00;99.90;;;;;;7308934;19;10230;-93
2023/10/27 13:53:08;;;;;;;;;;;11.00;99.90;;;;;;7315120;19;9194;-83
2023/10/27 13:55:37;;;;;;;;;;;11.00;99.90;;;;;;7304681;19;9293;-88
2023/10/27 13:58:06;;;;;;;;;;;11.10;99.90;;;;;;7316208;19;9302;-91
2023/10/27 14:00:35;;;;;;;;;;;11.00;99.90;;;;;;7317967;19;9276;-91
2023/10/27 14:03:04;;;;;;;;;;;11.00;99.90;;;;;;7319378;19;11735;-90
2023/10/27 14:05:36;;;;;;;;;;;11.00;99.90;;;;;;7320615;19;9199;-91
2023/10/27 14:08:05;;;;;;;;;;;11.00;99.90;;;;;;7320276;19;9285;-83
2023/10/27 14:10:33;;;;;;;;;;;11.00;99.90;;;;;;7320158;19;9294;-90
2023/10/27 14:13:02;;;;;;;;;;;11.00;99.90;;;;;;7319288;19;9249;-89
2023/10/27 14:15:32;;;;;;;;;;;11.00;99.90;;;;;;7319166;19;9449;-90
2023/10/27 14:18:02;;;;;;;;;;;10.90;99.90;;;;;;7318821;19;9179;-92
2023/10/27 14:20:31;;;;;;;;;;;10.90;99.90;;;;;;7319026;19;11477;-89
2023/10/27 14:23:04;;;;;;;;;;;10.90;99.90;;;;;;7310283;19;9268;-84
2023/10/27 14:25:37;;;;;;;;;;;10.90;99.90;;;;;;7316078;19;9229;-86
2023/10/27 14:28:07;;;;;;;;;;;10.90;99.90;;;;;;7317288;19;9412;-83
2023/10/27 14:30:36;;;;;;;;;;;10.90;99.90;;;;;;7317629;19;9773;-89
2023/10/27 14:33:05;;;;;;;;;;;10.80;99.90;;;;;;7315243;19;9514;-82
2023/10/27 14:35:36;;;;;;;;;;;10.80;99.90;;;;;;7314251;19;9626;-83
2023/10/27 14:38:12;;;;;;;;;;;10.90;99.90;;;;;;7317486;19;9252;-83
2023/10/27 14:40:41;;;;;;;;;;;10.90;99.90;;;;;;7314674;19;9269;-82
2023/10/27 14:43:11;;;;;;;;;;;10.90;99.90;;;;;;7310561;19;9713;-82
2023/10/27 14:45:39;;;;;;;;;;;10.90;99.90;;;;;;7311156;19;9221;-90
2023/10/27 14:48:09;;;;;;;;;;;10.90;99.90;;;;;;7315460;19;9691;-91